sensor_id;sensor_type;location;lat;lon;timestamp;pressure;altitude;pressure_sealevel;temperature;humidity
70925;BME280;58577;52.410;13.242;2022-09-03T00:02:18;101431.00;;;12.06;71.50
70925;BME280;58577;52.410;13.242;2022-09-03T00:05:28;101442.59;;;12.06;71.67
70925;BME280;58577;52.410;13.242;2022-09-03T00:11:52;101444.72;;;12.03;72.97
70925;BME280;58577;52.410;13.242;2022-09-03T00:14:51;101447.53;;;11.91;71.16
70925;BME280;58577;52.410;13.242;2022-09-03T00:17:56;101449.25;;;11.92;72.64
70925;BME280;58577;52.410;13.242;2022-09-03T00:20:50;101436.31;;;11.86;72.28
70925;BME280;58577;52.410;13.242;2022-09-03T00:23:39;101447.31;;;11.73;70.95
70925;BME280;58577;52.410;13.242;2022-09-03T00:26:28;101445.31;;;11.66;71.86
70925;BME280;58577;52.410;13.242;2022-09-03T00:29:54;101451.28;;;11.69;71.09
70925;BME280;58577;52.410;13.242;2022-09-03T00:32:49;101445.19;;;11.67;72.40
70925;BME280;58577;52.410;13.242;2022-09-03T00:35:46;101451.41;;;11.68;71.38
70925;BME280;58577;52.410;13.242;2022-09-03T00:38:33;101456.06;;;11.66;70.80
70925;BME280;58577;52.410;13.242;2022-09-03T00:41:37;101452.66;;;11.64;72.01
70925;BME280;58577;52.410;13.242;2022-09-03T00:44:41;101451.84;;;11.73;72.34
70925;BME280;58577;52.410;13.242;2022-09-03T00:50:45;101444.16;;;11.58;72.33
70925;BME280;58577;52.410;13.242;2022-09-03T00:54:05;101446.06;;;11.77;72.34
70925;BME280;58577;52.410;13.242;2022-09-03T00:57:20;101437.69;;;11.71;72.05
70925;BME280;58577;52.410;13.242;2022-09-03T01:00:20;101437.25;;;11.66;72.08
70925;BME280;58577;52.410;13.242;2022-09-03T01:03:11;101440.19;;;11.63;72.37
70925;BME280;58577;52.410;13.242;2022-09-03T01:28:00;101432.78;;;11.14;76.63
70925;BME280;58577;52.410;13.242;2022-09-03T01:31:25;101441.81;;;11.04;74.29
70925;BME280;58577;52.410;13.242;2022-09-03T01:34:37;101443.31;;;10.96;74.58
70925;BME280;58577;52.410;13.242;2022-09-03T01:57:44;101430.13;;;10.84;77.94
70925;BME280;58577;52.410;13.242;2022-09-03T02:00:33;101433.88;;;10.81;76.29
70925;BME280;58577;52.410;13.242;2022-09-03T02:03:22;101441.50;;;10.76;75.67
70925;BME280;58577;52.410;13.242;2022-09-03T02:06:10;101432.16;;;10.70;77.07
70925;BME280;58577;52.410;13.242;2022-09-03T02:08:57;101443.97;;;10.68;77.32
70925;BME280;58577;52.410;13.242;2022-09-03T02:11:47;101428.47;;;10.71;78.09
70925;BME280;58577;52.410;13.242;2022-09-03T02:14:34;101435.06;;;10.67;77.85
70925;BME280;58577;52.410;13.242;2022-09-03T02:17:20;101439.31;;;10.70;76.42
70925;BME280;58577;52.410;13.242;2022-09-03T02:20:09;101426.25;;;10.76;78.27
70925;BME280;58577;52.410;13.242;2022-09-03T02:22:58;101430.19;;;10.72;78.35
70925;BME280;58577;52.410;13.242;2022-09-03T02:25:47;101428.59;;;10.70;78.77
70925;BME280;58577;52.410;13.242;2022-09-03T02:28:36;101436.50;;;10.71;77.10
70925;BME280;58577;52.410;13.242;2022-09-03T02:31:22;101438.59;;;10.68;78.07
70925;BME280;58577;52.410;13.242;2022-09-03T02:34:08;101433.88;;;10.60;77.89
70925;BME280;58577;52.410;13.242;2022-09-03T02:36:54;101441.63;;;10.53;77.87
70925;BME280;58577;52.410;13.242;2022-09-03T02:39:40;101433.69;;;10.52;77.86
70925;BME280;58577;52.410;13.242;2022-09-03T02:42:26;101436.38;;;10.52;78.32
70925;BME280;58577;52.410;13.242;2022-09-03T02:45:28;101439.38;;;10.58;78.64
70925;BME280;58577;52.410;13.242;2022-09-03T02:48:18;101434.16;;;10.57;78.32
70925;BME280;58577;52.410;13.242;2022-09-03T02:51:06;101441.63;;;10.53;77.66
70925;BME280;58577;52.410;13.242;2022-09-03T02:53:51;101443.31;;;10.54;78.20
70925;BME280;58577;52.410;13.242;2022-09-03T02:56:37;101439.78;;;10.54;77.62
70925;BME280;58577;52.410;13.242;2022-09-03T02:59:24;101445.16;;;10.54;77.59
70925;BME280;58577;52.410;13.242;2022-09-03T03:02:12;101439.31;;;10.49;77.90
70925;BME280;58577;52.410;13.242;2022-09-03T03:04:58;101434.47;;;10.42;77.57
70925;BME280;58577;52.410;13.242;2022-09-03T03:07:44;101430.81;;;10.43;77.12
70925;BME280;58577;52.410;13.242;2022-09-03T03:10:30;101432.78;;;10.41;77.92
70925;BME280;58577;52.410;13.242;2022-09-03T03:13:16;101428.56;;;10.49;77.70
70925;BME280;58577;52.410;13.242;2022-09-03T03:16:04;101432.25;;;10.48;77.76
70925;BME280;58577;52.410;13.242;2022-09-03T03:18:55;101430.53;;;10.47;77.02
70925;BME280;58577;52.410;13.242;2022-09-03T03:21:41;101435.59;;;10.40;77.08
70925;BME280;58577;52.410;13.242;2022-09-03T03:24:27;101433.69;;;10.52;77.28
70925;BME280;58577;52.410;13.242;2022-09-03T03:27:13;101433.94;;;10.49;77.24
70925;BME280;58577;52.410;13.242;2022-09-03T03:29:59;101448.09;;;10.51;76.68
70925;BME280;58577;52.410;13.242;2022-09-03T03:32:45;101442.22;;;10.57;76.49
70925;BME280;58577;52.410;13.242;2022-09-03T03:35:31;101445.88;;;10.56;76.36
70925;BME280;58577;52.410;13.242;2022-09-03T03:38:17;101441.63;;;10.53;77.14
70925;BME280;58577;52.410;13.242;2022-09-03T03:41:17;101445.78;;;10.46;77.12
70925;BME280;58577;52.410;13.242;2022-09-03T03:44:05;101455.88;;;10.54;78.45
70925;BME280;58577;52.410;13.242;2022-09-03T03:46:51;101455.28;;;10.50;77.98
70925;BME280;58577;52.410;13.242;2022-09-03T03:49:37;101455.28;;;10.50;77.59
70925;BME280;58577;52.410;13.242;2022-09-03T03:52:24;101447.59;;;10.78;78.60
70925;BME280;58577;52.410;13.242;2022-09-03T03:55:10;101451.91;;;10.69;77.61
70925;BME280;58577;52.410;13.242;2022-09-03T03:57:57;101453.22;;;10.75;77.20
70925;BME280;58577;52.410;13.242;2022-09-03T04:00:43;101445.22;;;10.85;77.74
70925;BME280;58577;52.410;13.242;2022-09-03T04:03:29;101452.31;;;10.86;78.10
70925;BME280;58577;52.410;13.242;2022-09-03T04:06:18;101451.00;;;11.01;78.08
70925;BME280;58577;52.410;13.242;2022-09-03T04:09:04;101451.50;;;10.95;76.18
70925;BME280;58577;52.410;13.242;2022-09-03T04:11:50;101447.78;;;10.86;76.88
70925;BME280;58577;52.410;13.242;2022-09-03T04:14:35;101443.53;;;10.84;76.17
70925;BME280;58577;52.410;13.242;2022-09-03T04:17:21;101448.91;;;10.84;75.70
70925;BME280;58577;52.410;13.242;2022-09-03T04:20:07;101447.66;;;10.88;75.24
70925;BME280;58577;52.410;13.242;2022-09-03T04:22:53;101442.00;;;10.91;76.44
70925;BME280;58577;52.410;13.242;2022-09-03T04:25:39;101437.63;;;10.90;76.28
70925;BME280;58577;52.410;13.242;2022-09-03T04:28:26;101437.09;;;10.96;77.24
70925;BME280;58577;52.410;13.242;2022-09-03T04:31:14;101438.28;;;11.03;76.78
70925;BME280;58577;52.410;13.242;2022-09-03T04:34:00;101442.66;;;11.04;74.91
70925;BME280;58577;52.410;13.242;2022-09-03T04:36:46;101454.56;;;11.11;75.27
70925;BME280;58577;52.410;13.242;2022-09-03T04:39:32;101432.91;;;11.03;75.46
70925;BME280;58577;52.410;13.242;2022-09-03T04:42:20;101440.97;;;11.03;75.75
70925;BME280;58577;52.410;13.242;2022-09-03T04:44:56;101436.94;;;11.18;75.58
70925;BME280;58577;52.410;13.242;2022-09-03T04:47:43;101441.19;;;11.21;74.51
70925;BME280;58577;52.410;13.242;2022-09-03T04:50:31;101434.97;;;11.20;75.08
70925;BME280;58577;52.410;13.242;2022-09-03T04:53:21;101445.44;;;11.24;74.63
70925;BME280;58577;52.410;13.242;2022-09-03T04:56:21;101445.03;;;11.28;74.67
70925;BME280;58577;52.410;13.242;2022-09-03T04:59:08;101462.09;;;11.48;72.89
70925;BME280;58577;52.410;13.242;2022-09-03T05:01:54;101442.31;;;11.49;73.55
70925;BME280;58577;52.410;13.242;2022-09-03T05:04:41;101449.25;;;11.52;73.16
70925;BME280;58577;52.410;13.242;2022-09-03T05:07:27;101443.28;;;11.48;73.01
70925;BME280;58577;52.410;13.242;2022-09-03T05:10:13;101448.97;;;11.65;73.53
70925;BME280;58577;52.410;13.242;2022-09-03T05:13:05;101436.56;;;11.73;74.11
70925;BME280;58577;52.410;13.242;2022-09-03T05:15:50;101444.38;;;11.76;73.13
70925;BME280;58577;52.410;13.242;2022-09-03T05:18:36;101453.38;;;11.66;72.96
70925;BME280;58577;52.410;13.242;2022-09-03T05:21:22;101473.53;;;11.81;70.53
70925;BME280;58577;52.410;13.242;2022-09-03T05:24:09;101458.22;;;11.81;71.46
70925;BME280;58577;52.410;13.242;2022-09-03T05:26:55;101458.81;;;11.85;71.88
70925;BME280;58577;52.410;13.242;2022-09-03T05:29:42;101462.84;;;12.00;71.46
70925;BME280;58577;52.410;13.242;2022-09-03T05:32:29;101478.53;;;12.05;69.95
70925;BME280;58577;52.410;13.242;2022-09-03T05:35:15;101460.72;;;12.04;70.86
70925;BME280;58577;52.410;13.242;2022-09-03T05:38:01;101444.16;;;12.18;71.33
70925;BME280;58577;52.410;13.242;2022-09-03T05:40:47;101467.97;;;12.33;70.23
70925;BME280;58577;52.410;13.242;2022-09-03T05:43:33;101448.25;;;12.23;70.36
70925;BME280;58577;52.410;13.242;2022-09-03T05:46:20;101464.44;;;12.32;70.91
70925;BME280;58577;52.410;13.242;2022-09-03T05:49:06;101454.78;;;12.30;70.68
70925;BME280;58577;52.410;13.242;2022-09-03T05:51:52;101468.97;;;12.42;69.55
70925;BME280;58577;52.410;13.242;2022-09-03T05:54:38;101468.97;;;12.51;69.70
70925;BME280;58577;52.410;13.242;2022-09-03T05:57:24;101477.19;;;12.69;69.33
70925;BME280;58577;52.410;13.242;2022-09-03T06:00:10;101489.06;;;12.57;68.39
70925;BME280;58577;52.410;13.242;2022-09-03T06:02:57;101468.66;;;12.74;69.34
70925;BME280;58577;52.410;13.242;2022-09-03T06:05:52;101465.97;;;12.84;68.34
70925;BME280;58577;52.410;13.242;2022-09-03T06:08:39;101467.25;;;12.79;70.00
70925;BME280;58577;52.410;13.242;2022-09-03T06:11:26;101461.59;;;12.83;70.23
70925;BME280;58577;52.410;13.242;2022-09-03T06:14:15;101487.06;;;12.78;68.53
70925;BME280;58577;52.410;13.242;2022-09-03T06:17:01;101476.84;;;12.92;68.84
70925;BME280;58577;52.410;13.242;2022-09-03T06:19:46;101457.84;;;13.03;69.95
70925;BME280;58577;52.410;13.242;2022-09-03T06:22:32;101484.75;;;13.13;67.93
70925;BME280;58577;52.410;13.242;2022-09-03T06:25:18;101494.09;;;13.18;67.98
70925;BME280;58577;52.410;13.242;2022-09-03T06:28:04;101463.47;;;13.20;69.69
70925;BME280;58577;52.410;13.242;2022-09-03T06:30:57;101478.50;;;13.32;68.07
70925;BME280;58577;52.410;13.242;2022-09-03T06:33:43;101493.81;;;13.22;67.68
70925;BME280;58577;52.410;13.242;2022-09-03T06:36:30;101470.69;;;13.39;68.48
70925;BME280;58577;52.410;13.242;2022-09-03T06:39:16;101472.47;;;13.48;69.17
70925;BME280;58577;52.410;13.242;2022-09-03T06:42:01;101508.13;;;13.79;66.49
70925;BME280;58577;52.410;13.242;2022-09-03T06:44:54;101511.75;;;13.88;66.49
70925;BME280;58577;52.410;13.242;2022-09-03T06:47:42;101544.53;;;13.93;64.77
70925;BME280;58577;52.410;13.242;2022-09-03T06:50:27;101507.19;;;13.88;65.69
70925;BME280;58577;52.410;13.242;2022-09-03T06:53:13;101496.66;;;13.95;65.64
70925;BME280;58577;52.410;13.242;2022-09-03T06:56:01;101507.63;;;14.11;66.28
70925;BME280;58577;52.410;13.242;2022-09-03T06:58:48;101496.56;;;14.14;66.20
70925;BME280;58577;52.410;13.242;2022-09-03T07:01:35;101488.75;;;14.11;66.41
70925;BME280;58577;52.410;13.242;2022-09-03T07:04:23;101503.94;;;14.12;65.32
70925;BME280;58577;52.410;13.242;2022-09-03T07:07:11;101524.09;;;14.18;64.85
70925;BME280;58577;52.410;13.242;2022-09-03T07:09:58;101527.63;;;14.19;64.51
70925;BME280;58577;52.410;13.242;2022-09-03T07:12:44;101531.84;;;14.49;64.02
70925;BME280;58577;52.410;13.242;2022-09-03T07:15:30;101521.75;;;14.23;64.34
70925;BME280;58577;52.410;13.242;2022-09-03T07:18:16;101493.72;;;14.34;65.97
70925;BME280;58577;52.410;13.242;2022-09-03T07:21:10;101476.50;;;14.35;67.55
70925;BME280;58577;52.410;13.242;2022-09-03T07:23:56;101510.13;;;14.41;65.49
70925;BME280;58577;52.410;13.242;2022-09-03T07:26:42;101493.47;;;14.81;66.13
70925;BME280;58577;52.410;13.242;2022-09-03T07:29:33;101543.72;;;14.92;63.52
70925;BME280;58577;52.410;13.242;2022-09-03T07:32:18;101552.00;;;14.90;63.34
70925;BME280;58577;52.410;13.242;2022-09-03T07:35:04;101571.16;;;14.97;61.85
70925;BME280;58577;52.410;13.242;2022-09-03T07:37:50;101521.50;;;14.98;64.15
70925;BME280;58577;52.410;13.242;2022-09-03T07:40:36;101546.03;;;14.87;62.87
70925;BME280;58577;52.410;13.242;2022-09-03T07:43:24;101508.59;;;14.92;65.13
70925;BME280;58577;52.410;13.242;2022-09-03T07:46:11;101547.03;;;15.04;62.94
70925;BME280;58577;52.410;13.242;2022-09-03T07:48:58;101537.63;;;14.90;63.37
70925;BME280;58577;52.410;13.242;2022-09-03T07:51:47;101559.63;;;15.13;62.05
70925;BME280;58577;52.410;13.242;2022-09-03T07:54:35;101568.41;;;15.41;61.41
70925;BME280;58577;52.410;13.242;2022-09-03T07:57:20;101579.63;;;15.46;61.10
70925;BME280;58577;52.410;13.242;2022-09-03T08:00:07;101532.72;;;15.64;62.54
70925;BME280;58577;52.410;13.242;2022-09-03T08:02:57;101583.59;;;15.78;59.88
70925;BME280;58577;52.410;13.242;2022-09-03T08:05:48;101559.56;;;15.83;61.43
70925;BME280;58577;52.410;13.242;2022-09-03T08:08:35;101569.91;;;15.62;60.96
70925;BME280;58577;52.410;13.242;2022-09-03T08:11:21;101570.41;;;15.83;61.26
70925;BME280;58577;52.410;13.242;2022-09-03T08:14:09;101574.69;;;15.94;60.12
70925;BME280;58577;52.410;13.242;2022-09-03T08:16:55;101576.69;;;16.26;59.61
70925;BME280;58577;52.410;13.242;2022-09-03T08:19:41;101606.06;;;16.64;57.42
70925;BME280;58577;52.410;13.242;2022-09-03T08:22:28;101601.06;;;16.85;56.70
70925;BME280;58577;52.410;13.242;2022-09-03T08:25:14;101563.28;;;17.00;58.35
70925;BME280;58577;52.410;13.242;2022-09-03T08:28:00;101585.47;;;16.96;56.68
70925;BME280;58577;52.410;13.242;2022-09-03T08:30:45;101555.28;;;16.66;58.21
70925;BME280;58577;52.410;13.242;2022-09-03T08:37:39;101552.44;;;17.17;58.00
70925;BME280;58577;52.410;13.242;2022-09-03T08:40:07;101566.53;;;17.04;56.77
70925;BME280;58577;52.410;13.242;2022-09-03T08:43:14;101578.19;;;16.88;55.83
70925;BME280;58577;52.410;13.242;2022-09-03T08:46:03;101512.75;;;16.66;58.83
70925;BME280;58577;52.410;13.242;2022-09-03T08:48:49;101532.78;;;16.82;57.76
70925;BME280;58577;52.410;13.242;2022-09-03T08:51:35;101526.19;;;16.84;57.96
70925;BME280;58577;52.410;13.242;2022-09-03T08:54:27;101576.84;;;17.00;55.50
70925;BME280;58577;52.410;13.242;2022-09-03T08:57:15;101583.63;;;17.29;54.71
70925;BME280;58577;52.410;13.242;2022-09-03T09:00:04;101619.59;;;19.05;50.85
70925;BME280;58577;52.410;13.242;2022-09-03T09:06:04;101656.13;;;21.91;42.78
70925;BME280;58577;52.410;13.242;2022-09-03T09:12:28;101633.75;;;23.19;38.96
70925;BME280;58577;52.410;13.242;2022-09-03T09:21:33;101585.28;;;23.19;39.07
70925;BME280;58577;52.410;13.242;2022-09-03T09:24:25;101604.16;;;24.01;37.24
70925;BME280;58577;52.410;13.242;2022-09-03T09:27:14;101607.44;;;24.29;36.18
70925;BME280;58577;52.410;13.242;2022-09-03T09:30:04;101585.03;;;24.46;35.67
70925;BME280;58577;52.410;13.242;2022-09-03T09:32:50;101587.31;;;24.87;34.95
70925;BME280;58577;52.410;13.242;2022-09-03T09:35:35;101565.59;;;25.11;34.40
70925;BME280;58577;52.410;13.242;2022-09-03T09:38:29;101551.88;;;25.36;33.94
70925;BME280;58577;52.410;13.242;2022-09-03T09:41:18;101522.84;;;25.47;34.89
70925;BME280;58577;52.410;13.242;2022-09-03T09:44:16;101511.16;;;25.33;35.58
70925;BME280;58577;52.410;13.242;2022-09-03T09:47:13;101518.31;;;25.34;34.34
70925;BME280;58577;52.410;13.242;2022-09-03T09:50:16;101511.03;;;24.96;35.63
70925;BME280;58577;52.410;13.242;2022-09-03T09:53:11;101519.47;;;25.45;34.98
70925;BME280;58577;52.410;13.242;2022-09-03T09:56:03;101526.94;;;25.38;33.67
70925;BME280;58577;52.410;13.242;2022-09-03T10:01:48;101498.03;;;26.09;33.64
70925;BME280;58577;52.410;13.242;2022-09-03T10:04:35;101511.94;;;25.77;32.97
70925;BME280;58577;52.410;13.242;2022-09-03T10:07:29;101484.91;;;25.74;33.69
70925;BME280;58577;52.410;13.242;2022-09-03T10:10:19;101482.41;;;24.60;34.48
70925;BME280;58577;52.410;13.242;2022-09-03T10:13:10;101469.75;;;23.82;35.19
70925;BME280;58577;52.410;13.242;2022-09-03T10:16:14;101466.34;;;24.64;34.37
70925;BME280;58577;52.410;13.242;2022-09-03T10:19:16;101457.28;;;24.63;34.57
70925;BME280;58577;52.410;13.242;2022-09-03T10:22:10;101482.00;;;24.18;33.97
70925;BME280;58577;52.410;13.242;2022-09-03T10:24:59;101477.03;;;25.22;33.47
70925;BME280;58577;52.410;13.242;2022-09-03T10:27:50;101469.34;;;25.06;34.82
70925;BME280;58577;52.410;13.242;2022-09-03T10:40:24;101386.53;;;22.11;40.14
70925;BME280;58577;52.410;13.242;2022-09-03T10:46:25;101447.81;;;21.06;36.92
70925;BME280;58577;52.410;13.242;2022-09-03T10:49:19;101394.91;;;21.00;39.28
70925;BME280;58577;52.410;13.242;2022-09-03T10:52:36;101411.00;;;21.23;38.66
70925;BME280;58577;52.410;13.242;2022-09-03T10:55:55;101437.66;;;22.17;36.08
70925;BME280;58577;52.410;13.242;2022-09-03T11:02:19;101489.19;;;24.83;29.05
70925;BME280;58577;52.410;13.242;2022-09-03T11:05:17;101426.69;;;24.28;32.23
70925;BME280;58577;52.410;13.242;2022-09-03T11:08:16;101450.38;;;23.84;30.31
70925;BME280;58577;52.410;13.242;2022-09-03T11:11:25;101400.91;;;22.60;34.17
70925;BME280;58577;52.410;13.242;2022-09-03T11:14:15;101396.81;;;21.96;34.22
70925;BME280;58577;52.410;13.242;2022-09-03T11:17:12;101442.53;;;22.89;31.80
70925;BME280;58577;52.410;13.242;2022-09-03T11:22:57;101396.28;;;22.74;33.57
70925;BME280;58577;52.410;13.242;2022-09-03T11:25:55;101389.09;;;22.73;34.37
70925;BME280;58577;52.410;13.242;2022-09-03T11:31:55;101410.41;;;21.69;33.63
70925;BME280;58577;52.410;13.242;2022-09-03T11:34:46;101375.56;;;21.98;34.67
70925;BME280;58577;52.410;13.242;2022-09-03T11:37:46;101385.19;;;21.74;34.42
70925;BME280;58577;52.410;13.242;2022-09-03T11:40:36;101345.03;;;21.54;37.24
70925;BME280;58577;52.410;13.242;2022-09-03T11:49:12;101369.53;;;23.03;35.28
70925;BME280;58577;52.410;13.242;2022-09-03T11:52:00;101391.41;;;22.89;34.24
70925;BME280;58577;52.410;13.242;2022-09-03T11:54:46;101395.22;;;22.62;33.43
70925;BME280;58577;52.410;13.242;2022-09-03T11:57:39;101414.97;;;23.24;31.88
70925;BME280;58577;52.410;13.242;2022-09-03T12:00:26;101399.09;;;24.23;31.25
70925;BME280;58577;52.410;13.242;2022-09-03T12:03:13;101353.22;;;24.11;34.32
70925;BME280;58577;52.410;13.242;2022-09-03T12:18:02;101394.88;;;24.20;30.73
70925;BME280;58577;52.410;13.242;2022-09-03T12:21:05;101366.44;;;24.71;32.01
70925;BME280;58577;52.410;13.242;2022-09-03T12:23:53;101384.34;;;24.74;32.12
70925;BME280;58577;52.410;13.242;2022-09-03T12:26:41;101400.16;;;24.53;29.78
70925;BME280;58577;52.410;13.242;2022-09-03T12:29:29;101378.72;;;24.37;30.86
70925;BME280;58577;52.410;13.242;2022-09-03T12:32:15;101369.91;;;24.35;31.58
70925;BME280;58577;52.410;13.242;2022-09-03T12:37:58;101378.72;;;24.37;29.91
70925;BME280;58577;52.410;13.242;2022-09-03T12:40:43;101348.78;;;25.04;30.68
70925;BME280;58577;52.410;13.242;2022-09-03T12:43:30;101357.31;;;24.27;31.10
70925;BME280;58577;52.410;13.242;2022-09-03T12:46:16;101327.50;;;23.81;33.00
70925;BME280;58577;52.410;13.242;2022-09-03T12:49:04;101326.06;;;23.26;33.66
70925;BME280;58577;52.410;13.242;2022-09-03T12:51:58;101312.53;;;22.60;32.79
70925;BME280;58577;52.410;13.242;2022-09-03T12:54:54;101323.00;;;22.83;33.39
70925;BME280;58577;52.410;13.242;2022-09-03T12:57:46;101319.28;;;22.44;33.73
70925;BME280;58577;52.410;13.242;2022-09-03T13:00:36;101315.91;;;22.08;34.01
70925;BME280;58577;52.410;13.242;2022-09-03T13:03:47;101310.84;;;22.05;34.54
70925;BME280;58577;52.410;13.242;2022-09-03T13:06:49;101305.66;;;22.37;34.44
70925;BME280;58577;52.410;13.242;2022-09-03T13:09:39;101272.06;;;22.88;36.21
70925;BME280;58577;52.410;13.242;2022-09-03T13:12:41;101310.84;;;22.72;33.54
70925;BME280;58577;52.410;13.242;2022-09-03T13:15:29;101313.16;;;23.40;33.03
70925;BME280;58577;52.410;13.242;2022-09-03T13:18:18;101333.31;;;23.52;31.88
70925;BME280;58577;52.410;13.242;2022-09-03T13:21:13;101331.97;;;23.68;31.70
70925;BME280;58577;52.410;13.242;2022-09-03T13:30:56;101319.19;;;23.94;32.17
70925;BME280;58577;52.410;13.242;2022-09-03T13:33:53;101337.09;;;24.22;31.30
70925;BME280;58577;52.410;13.242;2022-09-03T13:36:57;101321.41;;;24.98;32.08
70925;BME280;58577;52.410;13.242;2022-09-03T13:39:52;101330.44;;;23.79;31.84
70925;BME280;58577;52.410;13.242;2022-09-03T13:42:41;101295.91;;;23.33;35.69
70925;BME280;58577;52.410;13.242;2022-09-03T13:45:38;101299.81;;;23.50;33.39
70925;BME280;58577;52.410;13.242;2022-09-03T13:48:44;101336.22;;;23.64;31.89
70925;BME280;58577;52.410;13.242;2022-09-03T13:51:58;101317.91;;;23.00;32.54
70925;BME280;58577;52.410;13.242;2022-09-03T13:54:50;101301.84;;;23.30;32.58
70925;BME280;58577;52.410;13.242;2022-09-03T13:57:58;101303.22;;;23.46;32.86
70925;BME280;58577;52.410;13.242;2022-09-03T14:00:49;101291.47;;;23.39;33.06
70925;BME280;58577;52.410;13.242;2022-09-03T14:06:53;101276.78;;;24.22;34.06
70925;BME280;58577;52.410;13.242;2022-09-03T14:10:43;101315.00;;;24.17;31.07
70925;BME280;58577;52.410;13.242;2022-09-03T14:13:17;101293.56;;;23.82;33.38
70925;BME280;58577;52.410;13.242;2022-09-03T14:19:22;101280.84;;;23.17;33.34
70925;BME280;58577;52.410;13.242;2022-09-03T14:22:22;101265.59;;;22.69;34.36
70925;BME280;58577;52.410;13.242;2022-09-03T14:25:14;101277.19;;;22.65;33.53
70925;BME280;58577;52.410;13.242;2022-09-03T14:28:18;101276.16;;;22.66;34.23
70925;BME280;58577;52.410;13.242;2022-09-03T14:31:37;101267.34;;;23.22;33.65
70925;BME280;58577;52.410;13.242;2022-09-03T14:38:26;101286.88;;;23.32;32.17
70925;BME280;58577;52.410;13.242;2022-09-03T14:50:33;101254.31;;;22.52;35.39
70925;BME280;58577;52.410;13.242;2022-09-03T14:53:47;101247.19;;;22.45;34.47
70925;BME280;58577;52.410;13.242;2022-09-03T14:56:58;101232.91;;;22.29;35.86
70925;BME280;58577;52.410;13.242;2022-09-03T15:12:24;101250.34;;;22.08;35.19
70925;BME280;58577;52.410;13.242;2022-09-03T15:19:42;101247.38;;;21.90;34.99
70925;BME280;58577;52.410;13.242;2022-09-03T15:23:08;101234.78;;;22.02;35.53
70925;BME280;58577;52.410;13.242;2022-09-03T15:26:15;101242.34;;;22.07;34.78
70925;BME280;58577;52.410;13.242;2022-09-03T15:37:57;101226.16;;;21.52;37.47
70925;BME280;58577;52.410;13.242;2022-09-03T15:43:31;101246.00;;;21.32;35.93
70925;BME280;58577;52.410;13.242;2022-09-03T15:46:36;101220.81;;;21.24;37.21
70925;BME280;58577;52.410;13.242;2022-09-03T15:49:53;101227.53;;;21.28;36.39
70925;BME280;58577;52.410;13.242;2022-09-03T15:56:01;101234.25;;;21.25;36.79
70925;BME280;58577;52.410;13.242;2022-09-03T15:59:13;101219.53;;;21.26;37.89
70925;BME280;58577;52.410;13.242;2022-09-03T16:02:06;101215.78;;;21.34;38.03
70925;BME280;58577;52.410;13.242;2022-09-03T16:11:05;101199.38;;;21.14;39.34
70925;BME280;58577;52.410;13.242;2022-09-03T16:14:09;101214.03;;;21.13;38.83
70925;BME280;58577;52.410;13.242;2022-09-03T16:17:04;101213.59;;;20.96;38.48
70925;BME280;58577;52.410;13.242;2022-09-03T16:22:54;101224.81;;;20.73;38.17
70925;BME280;58577;52.410;13.242;2022-09-03T16:25:47;101220.59;;;20.64;38.92
70925;BME280;58577;52.410;13.242;2022-09-03T16:35:11;101211.97;;;20.32;41.24
70925;BME280;58577;52.410;13.242;2022-09-03T16:38:15;101210.59;;;20.14;41.77
70925;BME280;58577;52.410;13.242;2022-09-03T16:41:14;101221.94;;;20.18;40.77
70925;BME280;58577;52.410;13.242;2022-09-03T16:48:11;101222.47;;;20.07;41.43
70925;BME280;58577;52.410;13.242;2022-09-03T16:53:23;101203.75;;;19.97;42.85
70925;BME280;58577;52.410;13.242;2022-09-03T17:03:03;101213.06;;;19.81;41.93
70925;BME280;58577;52.410;13.242;2022-09-03T17:06:04;101221.91;;;19.68;41.46
70925;BME280;58577;52.410;13.242;2022-09-03T17:18:48;101222.25;;;19.37;42.54
70925;BME280;58577;52.410;13.242;2022-09-03T17:26:08;101213.94;;;19.23;43.94
70925;BME280;58577;52.410;13.242;2022-09-03T17:31:43;101207.66;;;19.01;45.22
70925;BME280;58577;52.410;13.242;2022-09-03T17:41:12;101205.16;;;18.70;47.05
70925;BME280;58577;52.410;13.242;2022-09-03T17:50:30;101250.50;;;18.40;46.48
70925;BME280;58577;52.410;13.242;2022-09-03T17:53:25;101213.88;;;18.36;50.09
70925;BME280;58577;52.410;13.242;2022-09-03T17:56:29;101220.88;;;18.30;50.01
70925;BME280;58577;52.410;13.242;2022-09-03T18:02:28;101253.31;;;18.32;48.11
70925;BME280;58577;52.410;13.242;2022-09-03T18:05:18;101266.06;;;18.31;47.41
70925;BME280;58577;52.410;13.242;2022-09-03T18:08:06;101257.69;;;18.33;47.36
70925;BME280;58577;52.410;13.242;2022-09-03T18:11:13;101250.84;;;18.37;49.22
70925;BME280;58577;52.410;13.242;2022-09-03T18:17:26;101263.69;;;18.28;48.97
70925;BME280;58577;52.410;13.242;2022-09-03T18:20:13;101261.34;;;18.25;48.79
70925;BME280;58577;52.410;13.242;2022-09-03T18:26:25;101263.47;;;18.15;48.36
70925;BME280;58577;52.410;13.242;2022-09-03T18:29:49;101238.47;;;18.19;50.40
70925;BME280;58577;52.410;13.242;2022-09-03T18:32:57;101234.06;;;18.03;52.54
70925;BME280;58577;52.410;13.242;2022-09-03T18:36:01;101265.44;;;18.06;50.10
70925;BME280;58577;52.410;13.242;2022-09-03T18:39:14;101289.56;;;18.01;48.56
70925;BME280;58577;52.410;13.242;2022-09-03T18:42:28;101287.38;;;17.96;48.53
70925;BME280;58577;52.410;13.242;2022-09-03T18:49:25;101272.63;;;17.99;49.94
70925;BME280;58577;52.410;13.242;2022-09-03T18:52:43;101256.19;;;17.92;50.40